Newcastle, Canada
Current Conditions -  °F | °C
As of 3:00 AM on Sunday 26 Oct 2014 (Local Time) from CZBF Reporting Station
Haze Haze  
Wind Chill: 39°   Ceiling: 1200
Heat Index: 39°   Visibility: 3mi
Dew Point: 37°   Wind: 3mph
Humidity: 93%   Direction: 290°WNW
Pressure: 29.49"   Gusts: NA
Location:  46.98°N, 65.57°W
Report Text: CZBF 260600Z 29003KT 3SM BR OVC012 04/03 A2949 RMK SC8 /RO2/ SLP990
Loading
Personal Weather Stations






























Interactive Weather Map
Tropical Storm Tracking
New forecast layout! Learn more

10-Day Weather Forecast

Advertisements
Track Severe Weather on mobile